sensor_id;sensor_type;location;lat;lon;timestamp;P1;durP1;ratioP1;P2;durP2;ratioP2
56581;SDS011;42463;52.214;21.238;2022-07-15T00:00:23;7.10;;;2.20;;
56581;SDS011;42463;52.214;21.238;2022-07-15T00:02:49;5.70;;;2.30;;
56581;SDS011;42463;52.214;21.238;2022-07-15T00:05:16;5.90;;;1.90;;
56581;SDS011;42463;52.214;21.238;2022-07-15T00:07:42;8.30;;;3.20;;
56581;SDS011;42463;52.214;21.238;2022-07-15T00:10:09;4.30;;;2.00;;
56581;SDS011;42463;52.214;21.238;2022-07-15T00:12:38;4.60;;;2.20;;
56581;SDS011;42463;52.214;21.238;2022-07-15T00:15:06;4.30;;;2.10;;
56581;SDS011;42463;52.214;21.238;2022-07-15T00:17:33;5.40;;;2.20;;
56581;SDS011;42463;52.214;21.238;2022-07-15T00:20:00;3.60;;;2.10;;
56581;SDS011;42463;52.214;21.238;2022-07-15T00:22:27;8.40;;;2.30;;
56581;SDS011;42463;52.214;21.238;2022-07-15T00:24:54;6.10;;;2.10;;
56581;SDS011;42463;52.214;21.238;2022-07-15T00:27:20;7.50;;;2.20;;
56581;SDS011;42463;52.214;21.238;2022-07-15T00:29:46;5.40;;;2.00;;
56581;SDS011;42463;52.214;21.238;2022-07-15T00:32:13;5.10;;;2.10;;
56581;SDS011;42463;52.214;21.238;2022-07-15T00:34:39;4.80;;;1.90;;
56581;SDS011;42463;52.214;21.238;2022-07-15T00:37:05;3.30;;;1.90;;
56581;SDS011;42463;52.214;21.238;2022-07-15T00:39:31;3.30;;;2.10;;
56581;SDS011;42463;52.214;21.238;2022-07-15T00:41:57;3.70;;;1.70;;
56581;SDS011;42463;52.214;21.238;2022-07-15T00:44:24;4.00;;;2.00;;
56581;SDS011;42463;52.214;21.238;2022-07-15T00:46:50;5.00;;;2.00;;
56581;SDS011;42463;52.214;21.238;2022-07-15T00:49:17;3.10;;;1.80;;
56581;SDS011;42463;52.214;21.238;2022-07-15T00:51:44;6.50;;;2.20;;
56581;SDS011;42463;52.214;21.238;2022-07-15T00:54:15;5.20;;;2.10;;
56581;SDS011;42463;52.214;21.238;2022-07-15T00:56:48;2.90;;;1.90;;
56581;SDS011;42463;52.214;21.238;2022-07-15T00:59:15;6.00;;;2.00;;
56581;SDS011;42463;52.214;21.238;2022-07-15T01:01:50;6.80;;;2.40;;
56581;SDS011;42463;52.214;21.238;2022-07-15T01:04:18;4.50;;;1.90;;
56581;SDS011;42463;52.214;21.238;2022-07-15T01:06:44;6.70;;;2.00;;
56581;SDS011;42463;52.214;21.238;2022-07-15T01:09:11;5.50;;;1.90;;
56581;SDS011;42463;52.214;21.238;2022-07-15T01:11:37;5.40;;;2.20;;
56581;SDS011;42463;52.214;21.238;2022-07-15T01:14:05;4.30;;;2.20;;
56581;SDS011;42463;52.214;21.238;2022-07-15T01:16:31;5.80;;;2.20;;
56581;SDS011;42463;52.214;21.238;2022-07-15T01:18:58;4.50;;;2.30;;
56581;SDS011;42463;52.214;21.238;2022-07-15T01:21:31;9.40;;;2.30;;
56581;SDS011;42463;52.214;21.238;2022-07-15T01:23:57;3.70;;;2.00;;
56581;SDS011;42463;52.214;21.238;2022-07-15T01:26:30;3.00;;;1.90;;
56581;SDS011;42463;52.214;21.238;2022-07-15T01:28:57;7.80;;;2.10;;
56581;SDS011;42463;52.214;21.238;2022-07-15T01:31:23;4.30;;;2.00;;
56581;SDS011;42463;52.214;21.238;2022-07-15T01:33:49;3.90;;;2.10;;
56581;SDS011;42463;52.214;21.238;2022-07-15T01:36:17;4.40;;;1.80;;
56581;SDS011;42463;52.214;21.238;2022-07-15T01:38:49;3.50;;;1.80;;
56581;SDS011;42463;52.214;21.238;2022-07-15T01:41:16;3.60;;;1.80;;
56581;SDS011;42463;52.214;21.238;2022-07-15T01:43:42;10.00;;;2.70;;
56581;SDS011;42463;52.214;21.238;2022-07-15T01:46:09;3.10;;;1.60;;
56581;SDS011;42463;52.214;21.238;2022-07-15T01:48:35;2.70;;;1.90;;
56581;SDS011;42463;52.214;21.238;2022-07-15T01:52:04;4.30;;;1.90;;
56581;SDS011;42463;52.214;21.238;2022-07-15T01:54:33;6.10;;;2.20;;
56581;SDS011;42463;52.214;21.238;2022-07-15T01:57:01;3.30;;;1.90;;
56581;SDS011;42463;52.214;21.238;2022-07-15T01:59:32;4.30;;;1.60;;
56581;SDS011;42463;52.214;21.238;2022-07-15T02:01:58;6.80;;;2.10;;
56581;SDS011;42463;52.214;21.238;2022-07-15T02:04:25;5.20;;;2.00;;
56581;SDS011;42463;52.214;21.238;2022-07-15T02:06:52;3.50;;;2.10;;
56581;SDS011;42463;52.214;21.238;2022-07-15T02:09:20;3.90;;;1.90;;
56581;SDS011;42463;52.214;21.238;2022-07-15T02:11:49;3.80;;;1.70;;
56581;SDS011;42463;52.214;21.238;2022-07-15T02:14:17;3.70;;;1.70;;
56581;SDS011;42463;52.214;21.238;2022-07-15T02:16:45;3.60;;;1.90;;
56581;SDS011;42463;52.214;21.238;2022-07-15T02:19:15;4.70;;;1.90;;
56581;SDS011;42463;52.214;21.238;2022-07-15T02:21:41;4.60;;;1.80;;
56581;SDS011;42463;52.214;21.238;2022-07-15T02:24:08;5.70;;;2.00;;
56581;SDS011;42463;52.214;21.238;2022-07-15T02:26:34;3.40;;;2.00;;
56581;SDS011;42463;52.214;21.238;2022-07-15T02:29:00;3.90;;;1.90;;
56581;SDS011;42463;52.214;21.238;2022-07-15T02:31:26;3.90;;;1.90;;
56581;SDS011;42463;52.214;21.238;2022-07-15T02:33:53;4.00;;;2.50;;
56581;SDS011;42463;52.214;21.238;2022-07-15T02:36:22;4.50;;;1.90;;
56581;SDS011;42463;52.214;21.238;2022-07-15T02:38:49;8.40;;;2.10;;
56581;SDS011;42463;52.214;21.238;2022-07-15T02:41:15;4.30;;;2.10;;
56581;SDS011;42463;52.214;21.238;2022-07-15T02:43:42;4.70;;;2.00;;
56581;SDS011;42463;52.214;21.238;2022-07-15T02:46:09;3.90;;;2.00;;
56581;SDS011;42463;52.214;21.238;2022-07-15T02:48:36;3.90;;;2.00;;
56581;SDS011;42463;52.214;21.238;2022-07-15T02:51:03;6.30;;;2.00;;
56581;SDS011;42463;52.214;21.238;2022-07-15T02:53:29;4.40;;;1.90;;
56581;SDS011;42463;52.214;21.238;2022-07-15T02:55:58;3.90;;;1.70;;
56581;SDS011;42463;52.214;21.238;2022-07-15T02:58:25;7.70;;;2.20;;
56581;SDS011;42463;52.214;21.238;2022-07-15T03:00:53;4.70;;;2.10;;
56581;SDS011;42463;52.214;21.238;2022-07-15T03:03:19;4.50;;;1.90;;
56581;SDS011;42463;52.214;21.238;2022-07-15T03:05:46;4.20;;;2.00;;
56581;SDS011;42463;52.214;21.238;2022-07-15T03:08:12;3.90;;;1.90;;
56581;SDS011;42463;52.214;21.238;2022-07-15T03:10:38;3.90;;;1.90;;
56581;SDS011;42463;52.214;21.238;2022-07-15T03:13:04;6.30;;;2.30;;
56581;SDS011;42463;52.214;21.238;2022-07-15T03:15:31;4.00;;;1.80;;
56581;SDS011;42463;52.214;21.238;2022-07-15T03:17:57;5.00;;;2.00;;
56581;SDS011;42463;52.214;21.238;2022-07-15T03:20:23;4.50;;;2.10;;
56581;SDS011;42463;52.214;21.238;2022-07-15T03:22:50;7.70;;;2.00;;
56581;SDS011;42463;52.214;21.238;2022-07-15T03:25:16;3.90;;;2.00;;
56581;SDS011;42463;52.214;21.238;2022-07-15T03:27:44;4.90;;;2.00;;
56581;SDS011;42463;52.214;21.238;2022-07-15T03:30:10;3.40;;;1.90;;
56581;SDS011;42463;52.214;21.238;2022-07-15T03:32:38;3.20;;;1.90;;
56581;SDS011;42463;52.214;21.238;2022-07-15T03:35:06;5.40;;;2.00;;
56581;SDS011;42463;52.214;21.238;2022-07-15T03:37:34;6.30;;;2.00;;
56581;SDS011;42463;52.214;21.238;2022-07-15T03:40:00;5.70;;;2.10;;
56581;SDS011;42463;52.214;21.238;2022-07-15T03:42:27;3.70;;;1.80;;
56581;SDS011;42463;52.214;21.238;2022-07-15T03:44:53;4.10;;;2.00;;
56581;SDS011;42463;52.214;21.238;2022-07-15T03:47:19;5.60;;;2.00;;
56581;SDS011;42463;52.214;21.238;2022-07-15T03:49:47;2.50;;;1.60;;
56581;SDS011;42463;52.214;21.238;2022-07-15T03:52:13;4.20;;;1.70;;
56581;SDS011;42463;52.214;21.238;2022-07-15T03:54:40;5.00;;;1.80;;
56581;SDS011;42463;52.214;21.238;2022-07-15T03:57:06;6.90;;;2.40;;
56581;SDS011;42463;52.214;21.238;2022-07-15T03:59:32;4.10;;;1.90;;
56581;SDS011;42463;52.214;21.238;2022-07-15T04:01:58;5.50;;;1.80;;
56581;SDS011;42463;52.214;21.238;2022-07-15T04:04:24;2.70;;;2.00;;
56581;SDS011;42463;52.214;21.238;2022-07-15T04:06:50;3.70;;;1.70;;
56581;SDS011;42463;52.214;21.238;2022-07-15T04:09:19;5.20;;;1.80;;
56581;SDS011;42463;52.214;21.238;2022-07-15T04:11:46;3.10;;;1.90;;
56581;SDS011;42463;52.214;21.238;2022-07-15T04:14:13;4.50;;;1.70;;
56581;SDS011;42463;52.214;21.238;2022-07-15T04:16:40;4.40;;;1.90;;
56581;SDS011;42463;52.214;21.238;2022-07-15T04:19:21;5.80;;;1.90;;
56581;SDS011;42463;52.214;21.238;2022-07-15T04:21:49;5.40;;;1.70;;
56581;SDS011;42463;52.214;21.238;2022-07-15T04:24:15;4.80;;;1.90;;
56581;SDS011;42463;52.214;21.238;2022-07-15T04:26:41;4.10;;;1.80;;
56581;SDS011;42463;52.214;21.238;2022-07-15T04:29:07;4.20;;;1.70;;
56581;SDS011;42463;52.214;21.238;2022-07-15T04:31:34;3.60;;;1.50;;
56581;SDS011;42463;52.214;21.238;2022-07-15T04:34:06;4.70;;;1.90;;
56581;SDS011;42463;52.214;21.238;2022-07-15T04:36:33;3.00;;;1.50;;
56581;SDS011;42463;52.214;21.238;2022-07-15T04:38:59;3.90;;;1.90;;
56581;SDS011;42463;52.214;21.238;2022-07-15T04:41:26;5.60;;;1.90;;
56581;SDS011;42463;52.214;21.238;2022-07-15T04:43:53;5.00;;;1.80;;
56581;SDS011;42463;52.214;21.238;2022-07-15T04:46:19;6.30;;;1.50;;
56581;SDS011;42463;52.214;21.238;2022-07-15T04:48:48;5.80;;;1.50;;
56581;SDS011;42463;52.214;21.238;2022-07-15T04:51:43;2.10;;;1.40;;
56581;SDS011;42463;52.214;21.238;2022-07-15T04:54:09;5.70;;;1.60;;
56581;SDS011;42463;52.214;21.238;2022-07-15T04:56:38;3.40;;;1.60;;
56581;SDS011;42463;52.214;21.238;2022-07-15T04:59:04;4.00;;;1.40;;
56581;SDS011;42463;52.214;21.238;2022-07-15T05:01:30;2.90;;;1.40;;
56581;SDS011;42463;52.214;21.238;2022-07-15T05:03:57;6.00;;;1.60;;
56581;SDS011;42463;52.214;21.238;2022-07-15T05:06:23;5.90;;;1.80;;
56581;SDS011;42463;52.214;21.238;2022-07-15T05:08:50;5.80;;;1.80;;
56581;SDS011;42463;52.214;21.238;2022-07-15T05:11:16;5.60;;;1.40;;
56581;SDS011;42463;52.214;21.238;2022-07-15T05:13:44;4.70;;;1.40;;
56581;SDS011;42463;52.214;21.238;2022-07-15T05:16:12;4.50;;;1.30;;
56581;SDS011;42463;52.214;21.238;2022-07-15T05:18:39;7.30;;;1.40;;
56581;SDS011;42463;52.214;21.238;2022-07-15T05:21:06;3.10;;;1.50;;
56581;SDS011;42463;52.214;21.238;2022-07-15T05:23:35;4.40;;;1.10;;
56581;SDS011;42463;52.214;21.238;2022-07-15T05:26:03;4.00;;;1.30;;
56581;SDS011;42463;52.214;21.238;2022-07-15T05:28:32;4.90;;;1.20;;
56581;SDS011;42463;52.214;21.238;2022-07-15T05:30:58;5.30;;;1.40;;
56581;SDS011;42463;52.214;21.238;2022-07-15T05:33:25;5.90;;;1.40;;
56581;SDS011;42463;52.214;21.238;2022-07-15T05:35:53;3.10;;;1.10;;
56581;SDS011;42463;52.214;21.238;2022-07-15T05:38:24;4.70;;;1.10;;
56581;SDS011;42463;52.214;21.238;2022-07-15T05:40:50;4.00;;;1.30;;
56581;SDS011;42463;52.214;21.238;2022-07-15T05:43:17;4.00;;;1.10;;
56581;SDS011;42463;52.214;21.238;2022-07-15T05:45:44;3.60;;;1.30;;
56581;SDS011;42463;52.214;21.238;2022-07-15T05:48:10;7.60;;;1.50;;
56581;SDS011;42463;52.214;21.238;2022-07-15T05:50:42;5.20;;;2.60;;
56581;SDS011;42463;52.214;21.238;2022-07-15T05:53:10;3.10;;;1.20;;
56581;SDS011;42463;52.214;21.238;2022-07-15T05:55:37;4.30;;;1.00;;
56581;SDS011;42463;52.214;21.238;2022-07-15T05:58:06;4.90;;;1.00;;
56581;SDS011;42463;52.214;21.238;2022-07-15T06:00:34;3.10;;;0.80;;
56581;SDS011;42463;52.214;21.238;2022-07-15T06:03:01;3.90;;;1.00;;
56581;SDS011;42463;52.214;21.238;2022-07-15T06:05:27;6.20;;;0.80;;
56581;SDS011;42463;52.214;21.238;2022-07-15T06:07:57;5.60;;;1.00;;
56581;SDS011;42463;52.214;21.238;2022-07-15T06:10:31;6.30;;;1.10;;
56581;SDS011;42463;52.214;21.238;2022-07-15T06:12:57;2.90;;;0.70;;
56581;SDS011;42463;52.214;21.238;2022-07-15T06:15:24;5.20;;;0.90;;
56581;SDS011;42463;52.214;21.238;2022-07-15T06:17:50;4.20;;;1.00;;
56581;SDS011;42463;52.214;21.238;2022-07-15T06:20:18;7.10;;;1.00;;
56581;SDS011;42463;52.214;21.238;2022-07-15T06:22:44;2.00;;;0.90;;
56581;SDS011;42463;52.214;21.238;2022-07-15T06:25:10;1.90;;;0.70;;
56581;SDS011;42463;52.214;21.238;2022-07-15T06:27:38;2.80;;;1.00;;
56581;SDS011;42463;52.214;21.238;2022-07-15T06:30:07;4.20;;;1.00;;
56581;SDS011;42463;52.214;21.238;2022-07-15T06:32:34;5.80;;;1.10;;
56581;SDS011;42463;52.214;21.238;2022-07-15T06:35:01;1.60;;;0.80;;
56581;SDS011;42463;52.214;21.238;2022-07-15T06:37:28;3.50;;;1.20;;
56581;SDS011;42463;52.214;21.238;2022-07-15T06:39:55;3.30;;;1.10;;
56581;SDS011;42463;52.214;21.238;2022-07-15T06:42:21;1.70;;;0.80;;
56581;SDS011;42463;52.214;21.238;2022-07-15T06:44:57;5.00;;;1.20;;
56581;SDS011;42463;52.214;21.238;2022-07-15T06:47:23;1.90;;;0.70;;
56581;SDS011;42463;52.214;21.238;2022-07-15T06:49:51;2.90;;;1.00;;
56581;SDS011;42463;52.214;21.238;2022-07-15T06:52:17;2.80;;;0.90;;
56581;SDS011;42463;52.214;21.238;2022-07-15T06:54:43;3.10;;;0.90;;
56581;SDS011;42463;52.214;21.238;2022-07-15T06:57:11;4.40;;;1.00;;
56581;SDS011;42463;52.214;21.238;2022-07-15T06:59:39;4.50;;;0.90;;
56581;SDS011;42463;52.214;21.238;2022-07-15T07:02:06;1.50;;;0.90;;
56581;SDS011;42463;52.214;21.238;2022-07-15T07:04:32;6.00;;;1.20;;
56581;SDS011;42463;52.214;21.238;2022-07-15T07:06:59;5.60;;;1.40;;
56581;SDS011;42463;52.214;21.238;2022-07-15T07:09:25;5.20;;;1.30;;
56581;SDS011;42463;52.214;21.238;2022-07-15T07:11:51;7.40;;;1.60;;
56581;SDS011;42463;52.214;21.238;2022-07-15T07:14:17;5.60;;;1.30;;
56581;SDS011;42463;52.214;21.238;2022-07-15T07:16:43;3.10;;;1.40;;
56581;SDS011;42463;52.214;21.238;2022-07-15T07:19:09;3.50;;;1.80;;
56581;SDS011;42463;52.214;21.238;2022-07-15T07:21:36;3.70;;;1.80;;
56581;SDS011;42463;52.214;21.238;2022-07-15T07:24:07;4.60;;;2.00;;
56581;SDS011;42463;52.214;21.238;2022-07-15T07:26:33;3.90;;;2.20;;
56581;SDS011;42463;52.214;21.238;2022-07-15T07:29:00;2.80;;;1.60;;
56581;SDS011;42463;52.214;21.238;2022-07-15T07:31:27;3.20;;;1.40;;
56581;SDS011;42463;52.214;21.238;2022-07-15T07:33:54;3.30;;;1.40;;
56581;SDS011;42463;52.214;21.238;2022-07-15T07:36:20;4.90;;;1.20;;
56581;SDS011;42463;52.214;21.238;2022-07-15T07:38:47;2.70;;;1.40;;
56581;SDS011;42463;52.214;21.238;2022-07-15T07:41:13;4.80;;;1.20;;
56581;SDS011;42463;52.214;21.238;2022-07-15T07:43:40;2.70;;;1.30;;
56581;SDS011;42463;52.214;21.238;2022-07-15T07:46:06;3.80;;;1.30;;
56581;SDS011;42463;52.214;21.238;2022-07-15T07:48:33;4.40;;;1.40;;
56581;SDS011;42463;52.214;21.238;2022-07-15T07:50:59;2.80;;;1.30;;
56581;SDS011;42463;52.214;21.238;2022-07-15T07:53:25;3.30;;;1.30;;
56581;SDS011;42463;52.214;21.238;2022-07-15T07:55:51;5.70;;;1.50;;
56581;SDS011;42463;52.214;21.238;2022-07-15T07:58:41;5.40;;;1.60;;
56581;SDS011;42463;52.214;21.238;2022-07-15T08:01:09;2.50;;;1.30;;
56581;SDS011;42463;52.214;21.238;2022-07-15T08:03:39;4.10;;;1.60;;
56581;SDS011;42463;52.214;21.238;2022-07-15T08:06:19;4.00;;;1.70;;
56581;SDS011;42463;52.214;21.238;2022-07-15T08:08:47;2.80;;;1.30;;
56581;SDS011;42463;52.214;21.238;2022-07-15T08:11:15;5.80;;;1.90;;
56581;SDS011;42463;52.214;21.238;2022-07-15T08:13:43;4.70;;;1.50;;
56581;SDS011;42463;52.214;21.238;2022-07-15T08:16:09;4.40;;;1.40;;
56581;SDS011;42463;52.214;21.238;2022-07-15T08:18:35;1.80;;;1.20;;
56581;SDS011;42463;52.214;21.238;2022-07-15T08:21:02;5.80;;;1.70;;
56581;SDS011;42463;52.214;21.238;2022-07-15T08:23:29;5.90;;;1.70;;
56581;SDS011;42463;52.214;21.238;2022-07-15T08:25:55;3.70;;;1.70;;
56581;SDS011;42463;52.214;21.238;2022-07-15T08:28:21;3.70;;;2.00;;
56581;SDS011;42463;52.214;21.238;2022-07-15T08:30:47;3.50;;;1.30;;
56581;SDS011;42463;52.214;21.238;2022-07-15T08:33:13;3.60;;;1.70;;
56581;SDS011;42463;52.214;21.238;2022-07-15T08:35:40;2.90;;;1.70;;
56581;SDS011;42463;52.214;21.238;2022-07-15T08:38:07;4.70;;;1.70;;
56581;SDS011;42463;52.214;21.238;2022-07-15T08:40:35;4.70;;;1.80;;
56581;SDS011;42463;52.214;21.238;2022-07-15T08:43:02;2.10;;;1.40;;
56581;SDS011;42463;52.214;21.238;2022-07-15T08:45:35;3.40;;;1.30;;
56581;SDS011;42463;52.214;21.238;2022-07-15T08:48:07;4.90;;;1.40;;
56581;SDS011;42463;52.214;21.238;2022-07-15T08:50:35;2.10;;;1.10;;
56581;SDS011;42463;52.214;21.238;2022-07-15T08:53:02;1.50;;;1.00;;
56581;SDS011;42463;52.214;21.238;2022-07-15T08:55:29;4.20;;;1.00;;
56581;SDS011;42463;52.214;21.238;2022-07-15T08:57:57;2.90;;;1.40;;
56581;SDS011;42463;52.214;21.238;2022-07-15T09:00:24;1.60;;;1.10;;
56581;SDS011;42463;52.214;21.238;2022-07-15T09:02:54;2.00;;;0.90;;
56581;SDS011;42463;52.214;21.238;2022-07-15T09:05:26;1.40;;;0.80;;
56581;SDS011;42463;52.214;21.238;2022-07-15T09:07:57;3.50;;;1.20;;
56581;SDS011;42463;52.214;21.238;2022-07-15T09:10:40;2.60;;;1.00;;
56581;SDS011;42463;52.214;21.238;2022-07-15T09:13:07;2.70;;;0.90;;
56581;SDS011;42463;52.214;21.238;2022-07-15T09:15:40;1.80;;;0.80;;
56581;SDS011;42463;52.214;21.238;2022-07-15T09:18:12;2.20;;;1.00;;
56581;SDS011;42463;52.214;21.238;2022-07-15T09:20:40;1.90;;;1.10;;
56581;SDS011;42463;52.214;21.238;2022-07-15T09:23:10;2.20;;;0.90;;
56581;SDS011;42463;52.214;21.238;2022-07-15T09:25:44;1.20;;;0.70;;
56581;SDS011;42463;52.214;21.238;2022-07-15T09:28:10;2.90;;;0.80;;
56581;SDS011;42463;52.214;21.238;2022-07-15T09:30:39;1.20;;;0.70;;
56581;SDS011;42463;52.214;21.238;2022-07-15T09:33:26;3.50;;;0.90;;
56581;SDS011;42463;52.214;21.238;2022-07-15T09:36:04;4.90;;;0.90;;
56581;SDS011;42463;52.214;21.238;2022-07-15T09:41:04;1.90;;;0.80;;
56581;SDS011;42463;52.214;21.238;2022-07-15T09:43:32;2.40;;;1.00;;
56581;SDS011;42463;52.214;21.238;2022-07-15T09:46:13;4.40;;;0.90;;
56581;SDS011;42463;52.214;21.238;2022-07-15T09:48:42;3.30;;;1.00;;
56581;SDS011;42463;52.214;21.238;2022-07-15T09:51:09;3.30;;;0.90;;
56581;SDS011;42463;52.214;21.238;2022-07-15T09:53:36;2.30;;;0.80;;
56581;SDS011;42463;52.214;21.238;2022-07-15T09:56:04;3.40;;;0.90;;
56581;SDS011;42463;52.214;21.238;2022-07-15T09:58:33;2.20;;;1.00;;
56581;SDS011;42463;52.214;21.238;2022-07-15T10:01:02;2.60;;;0.90;;
56581;SDS011;42463;52.214;21.238;2022-07-15T10:03:29;2.60;;;1.10;;
56581;SDS011;42463;52.214;21.238;2022-07-15T10:05:58;3.90;;;1.20;;
56581;SDS011;42463;52.214;21.238;2022-07-15T10:08:26;2.50;;;1.00;;
56581;SDS011;42463;52.214;21.238;2022-07-15T10:10:55;1.80;;;0.90;;
56581;SDS011;42463;52.214;21.238;2022-07-15T10:13:31;6.10;;;1.00;;
56581;SDS011;42463;52.214;21.238;2022-07-15T10:16:14;2.60;;;0.80;;
56581;SDS011;42463;52.214;21.238;2022-07-15T10:18:56;2.30;;;0.70;;
56581;SDS011;42463;52.214;21.238;2022-07-15T10:21:38;1.90;;;1.00;;
56581;SDS011;42463;52.214;21.238;2022-07-15T10:24:18;2.90;;;1.00;;
56581;SDS011;42463;52.214;21.238;2022-07-15T10:27:13;2.50;;;0.80;;
56581;SDS011;42463;52.214;21.238;2022-07-15T10:30:02;2.00;;;0.80;;
56581;SDS011;42463;52.214;21.238;2022-07-15T10:32:30;3.00;;;1.10;;
56581;SDS011;42463;52.214;21.238;2022-07-15T10:35:38;2.10;;;0.90;;
56581;SDS011;42463;52.214;21.238;2022-07-15T10:38:27;6.10;;;1.10;;
56581;SDS011;42463;52.214;21.238;2022-07-15T10:41:00;2.10;;;0.80;;
56581;SDS011;42463;52.214;21.238;2022-07-15T10:43:50;4.90;;;0.70;;
56581;SDS011;42463;52.214;21.238;2022-07-15T10:46:26;3.80;;;0.80;;
56581;SDS011;42463;52.214;21.238;2022-07-15T10:51:53;3.10;;;1.10;;
56581;SDS011;42463;52.214;21.238;2022-07-15T10:54:49;2.50;;;1.00;;
56581;SDS011;42463;52.214;21.238;2022-07-15T10:57:53;2.40;;;1.00;;
56581;SDS011;42463;52.214;21.238;2022-07-15T11:00:28;3.10;;;0.80;;
56581;SDS011;42463;52.214;21.238;2022-07-15T11:03:07;2.60;;;0.80;;
56581;SDS011;42463;52.214;21.238;2022-07-15T11:05:41;1.80;;;0.70;;
56581;SDS011;42463;52.214;21.238;2022-07-15T11:08:51;4.60;;;1.20;;
56581;SDS011;42463;52.214;21.238;2022-07-15T11:11:49;4.60;;;0.90;;
56581;SDS011;42463;52.214;21.238;2022-07-15T11:17:27;4.00;;;0.90;;
56581;SDS011;42463;52.214;21.238;2022-07-15T11:20:06;3.20;;;0.80;;
56581;SDS011;42463;52.214;21.238;2022-07-15T11:22:36;4.00;;;1.00;;
56581;SDS011;42463;52.214;21.238;2022-07-15T11:25:05;6.50;;;1.00;;
56581;SDS011;42463;52.214;21.238;2022-07-15T11:27:40;1.70;;;0.70;;
56581;SDS011;42463;52.214;21.238;2022-07-15T11:30:18;3.10;;;0.60;;
56581;SDS011;42463;52.214;21.238;2022-07-15T11:32:44;4.60;;;0.90;;
56581;SDS011;42463;52.214;21.238;2022-07-15T11:37:43;3.70;;;0.90;;
56581;SDS011;42463;52.214;21.238;2022-07-15T11:40:12;2.00;;;0.60;;
56581;SDS011;42463;52.214;21.238;2022-07-15T11:43:00;5.30;;;0.90;;
56581;SDS011;42463;52.214;21.238;2022-07-15T11:45:45;2.10;;;0.80;;
56581;SDS011;42463;52.214;21.238;2022-07-15T11:48:11;3.40;;;0.80;;
56581;SDS011;42463;52.214;21.238;2022-07-15T11:50:48;3.80;;;0.80;;
56581;SDS011;42463;52.214;21.238;2022-07-15T11:53:16;5.70;;;0.80;;
56581;SDS011;42463;52.214;21.238;2022-07-15T11:55:59;3.00;;;0.80;;
56581;SDS011;42463;52.214;21.238;2022-07-15T11:58:30;5.20;;;0.80;;
56581;SDS011;42463;52.214;21.238;2022-07-15T12:00:59;1.90;;;0.80;;
56581;SDS011;42463;52.214;21.238;2022-07-15T12:03:33;3.30;;;1.00;;
56581;SDS011;42463;52.214;21.238;2022-07-15T12:06:05;3.00;;;0.80;;
56581;SDS011;42463;52.214;21.238;2022-07-15T12:08:51;3.90;;;1.10;;
56581;SDS011;42463;52.214;21.238;2022-07-15T12:11:21;5.20;;;0.90;;
56581;SDS011;42463;52.214;21.238;2022-07-15T12:13:54;4.50;;;0.90;;
56581;SDS011;42463;52.214;21.238;2022-07-15T12:16:25;3.50;;;0.60;;
56581;SDS011;42463;52.214;21.238;2022-07-15T12:18:55;1.10;;;0.60;;
56581;SDS011;42463;52.214;21.238;2022-07-15T12:21:23;4.30;;;1.10;;
56581;SDS011;42463;52.214;21.238;2022-07-15T12:24:07;1.50;;;0.70;;
56581;SDS011;42463;52.214;21.238;2022-07-15T12:26:37;5.90;;;0.80;;
56581;SDS011;42463;52.214;21.238;2022-07-15T12:29:05;6.50;;;0.80;;
56581;SDS011;42463;52.214;21.238;2022-07-15T12:31:34;2.50;;;0.70;;
56581;SDS011;42463;52.214;21.238;2022-07-15T12:34:02;3.00;;;0.80;;
56581;SDS011;42463;52.214;21.238;2022-07-15T12:36:32;4.40;;;0.70;;
56581;SDS011;42463;52.214;21.238;2022-07-15T12:39:07;4.50;;;0.90;;
56581;SDS011;42463;52.214;21.238;2022-07-15T12:41:36;2.50;;;0.80;;
56581;SDS011;42463;52.214;21.238;2022-07-15T12:44:05;2.10;;;0.80;;
56581;SDS011;42463;52.214;21.238;2022-07-15T12:46:50;2.90;;;0.80;;
56581;SDS011;42463;52.214;21.238;2022-07-15T12:49:38;2.20;;;0.80;;
56581;SDS011;42463;52.214;21.238;2022-07-15T12:52:24;1.40;;;0.60;;
56581;SDS011;42463;52.214;21.238;2022-07-15T12:54:55;3.30;;;0.90;;
56581;SDS011;42463;52.214;21.238;2022-07-15T12:57:30;2.00;;;0.80;;
56581;SDS011;42463;52.214;21.238;2022-07-15T12:59:59;1.10;;;0.60;;
56581;SDS011;42463;52.214;21.238;2022-07-15T13:02:29;4.90;;;0.80;;
56581;SDS011;42463;52.214;21.238;2022-07-15T13:04:55;2.90;;;0.80;;
56581;SDS011;42463;52.214;21.238;2022-07-15T13:07:22;1.80;;;0.70;;
56581;SDS011;42463;52.214;21.238;2022-07-15T13:09:49;4.80;;;1.00;;
56581;SDS011;42463;52.214;21.238;2022-07-15T13:12:16;1.90;;;0.60;;
56581;SDS011;42463;52.214;21.238;2022-07-15T13:14:42;1.80;;;0.70;;
56581;SDS011;42463;52.214;21.238;2022-07-15T13:17:09;1.60;;;0.50;;
56581;SDS011;42463;52.214;21.238;2022-07-15T13:19:35;4.50;;;0.70;;
56581;SDS011;42463;52.214;21.238;2022-07-15T13:22:01;1.80;;;0.70;;
56581;SDS011;42463;52.214;21.238;2022-07-15T13:24:28;2.20;;;0.50;;
56581;SDS011;42463;52.214;21.238;2022-07-15T13:26:54;2.40;;;0.60;;
56581;SDS011;42463;52.214;21.238;2022-07-15T13:29:20;3.30;;;0.70;;
56581;SDS011;42463;52.214;21.238;2022-07-15T13:31:46;2.50;;;0.60;;
56581;SDS011;42463;52.214;21.238;2022-07-15T13:34:12;3.30;;;0.80;;
56581;SDS011;42463;52.214;21.238;2022-07-15T13:36:38;1.20;;;0.60;;
56581;SDS011;42463;52.214;21.238;2022-07-15T13:39:04;3.10;;;0.90;;
56581;SDS011;42463;52.214;21.238;2022-07-15T13:41:31;2.60;;;0.80;;
56581;SDS011;42463;52.214;21.238;2022-07-15T13:43:57;1.80;;;0.80;;
56581;SDS011;42463;52.214;21.238;2022-07-15T13:46:24;2.40;;;0.80;;
56581;SDS011;42463;52.214;21.238;2022-07-15T13:48:50;3.40;;;0.70;;
56581;SDS011;42463;52.214;21.238;2022-07-15T13:51:16;1.90;;;0.70;;
56581;SDS011;42463;52.214;21.238;2022-07-15T13:53:48;3.10;;;0.70;;
56581;SDS011;42463;52.214;21.238;2022-07-15T13:56:14;1.10;;;0.70;;
56581;SDS011;42463;52.214;21.238;2022-07-15T13:58:41;0.90;;;0.60;;
56581;SDS011;42463;52.214;21.238;2022-07-15T14:01:07;2.10;;;0.80;;
56581;SDS011;42463;52.214;21.238;2022-07-15T14:03:45;2.50;;;0.60;;
56581;SDS011;42463;52.214;21.238;2022-07-15T14:06:11;4.20;;;0.80;;
56581;SDS011;42463;52.214;21.238;2022-07-15T14:08:38;2.80;;;0.80;;
56581;SDS011;42463;52.214;21.238;2022-07-15T14:11:04;4.70;;;0.70;;
56581;SDS011;42463;52.214;21.238;2022-07-15T14:13:30;2.00;;;0.80;;
56581;SDS011;42463;52.214;21.238;2022-07-15T14:15:57;2.10;;;0.70;;
56581;SDS011;42463;52.214;21.238;2022-07-15T14:18:23;3.90;;;1.10;;
56581;SDS011;42463;52.214;21.238;2022-07-15T14:21:03;2.60;;;0.90;;
56581;SDS011;42463;52.214;21.238;2022-07-15T14:23:30;3.10;;;0.80;;
56581;SDS011;42463;52.214;21.238;2022-07-15T14:25:56;2.70;;;0.70;;
56581;SDS011;42463;52.214;21.238;2022-07-15T14:28:22;2.10;;;0.70;;
56581;SDS011;42463;52.214;21.238;2022-07-15T14:30:49;5.30;;;0.90;;
56581;SDS011;42463;52.214;21.238;2022-07-15T14:33:15;5.10;;;0.90;;
56581;SDS011;42463;52.214;21.238;2022-07-15T14:35:41;1.70;;;0.80;;
56581;SDS011;42463;52.214;21.238;2022-07-15T14:38:10;1.40;;;0.80;;
56581;SDS011;42463;52.214;21.238;2022-07-15T14:40:38;2.10;;;0.90;;
56581;SDS011;42463;52.214;21.238;2022-07-15T14:43:04;2.90;;;0.80;;
56581;SDS011;42463;52.214;21.238;2022-07-15T14:45:30;2.80;;;0.60;;
56581;SDS011;42463;52.214;21.238;2022-07-15T14:47:58;2.20;;;0.90;;
56581;SDS011;42463;52.214;21.238;2022-07-15T14:50:25;3.20;;;0.70;;
56581;SDS011;42463;52.214;21.238;2022-07-15T14:52:51;3.00;;;0.90;;
56581;SDS011;42463;52.214;21.238;2022-07-15T14:55:17;4.70;;;0.90;;
56581;SDS011;42463;52.214;21.238;2022-07-15T14:57:43;3.50;;;1.00;;